sensor_id;sensor_type;location;lat;lon;timestamp;P1;durP1;ratioP1;P2;durP2;ratioP2
75044;SDS011;63614;56.026;35.960;2023-02-04T00:01:21;10.73;;;6.68;;
75044;SDS011;63614;56.026;35.960;2023-02-04T00:03:47;9.38;;;5.90;;
75044;SDS011;63614;56.026;35.960;2023-02-04T00:06:13;8.38;;;5.93;;
75044;SDS011;63614;56.026;35.960;2023-02-04T00:08:38;10.05;;;6.15;;
75044;SDS011;63614;56.026;35.960;2023-02-04T00:11:04;10.48;;;5.90;;
75044;SDS011;63614;56.026;35.960;2023-02-04T00:13:30;9.52;;;6.10;;
75044;SDS011;63614;56.026;35.960;2023-02-04T00:15:56;8.38;;;5.88;;
75044;SDS011;63614;56.026;35.960;2023-02-04T00:18:21;11.57;;;6.53;;
75044;SDS011;63614;56.026;35.960;2023-02-04T00:20:47;10.73;;;6.25;;
75044;SDS011;63614;56.026;35.960;2023-02-04T00:23:13;9.55;;;5.80;;
75044;SDS011;63614;56.026;35.960;2023-02-04T00:26:03;8.13;;;5.85;;
75044;SDS011;63614;56.026;35.960;2023-02-04T00:28:29;10.48;;;6.40;;
75044;SDS011;63614;56.026;35.960;2023-02-04T00:30:55;9.48;;;6.10;;
75044;SDS011;63614;56.026;35.960;2023-02-04T00:33:21;8.63;;;5.82;;
75044;SDS011;63614;56.026;35.960;2023-02-04T00:35:46;10.90;;;6.43;;
75044;SDS011;63614;56.026;35.960;2023-02-04T00:38:12;11.35;;;6.38;;
75044;SDS011;63614;56.026;35.960;2023-02-04T00:40:39;9.30;;;6.40;;
75044;SDS011;63614;56.026;35.960;2023-02-04T00:43:04;12.77;;;7.13;;
75044;SDS011;63614;56.026;35.960;2023-02-04T00:45:30;12.15;;;7.55;;
75044;SDS011;63614;56.026;35.960;2023-02-04T00:47:56;13.57;;;7.40;;
75044;SDS011;63614;56.026;35.960;2023-02-04T00:50:22;13.80;;;7.68;;
75044;SDS011;63614;56.026;35.960;2023-02-04T00:52:48;14.25;;;7.88;;
75044;SDS011;63614;56.026;35.960;2023-02-04T00:55:14;11.82;;;7.45;;
75044;SDS011;63614;56.026;35.960;2023-02-04T00:57:42;12.82;;;7.60;;
75044;SDS011;63614;56.026;35.960;2023-02-04T01:00:11;11.38;;;7.38;;
75044;SDS011;63614;56.026;35.960;2023-02-04T01:02:37;11.13;;;7.15;;
75044;SDS011;63614;56.026;35.960;2023-02-04T01:05:05;11.02;;;7.22;;
75044;SDS011;63614;56.026;35.960;2023-02-04T01:07:32;12.73;;;7.72;;
75044;SDS011;63614;56.026;35.960;2023-02-04T01:09:58;11.25;;;7.55;;
75044;SDS011;63614;56.026;35.960;2023-02-04T01:12:23;12.02;;;7.30;;
75044;SDS011;63614;56.026;35.960;2023-02-04T01:14:52;11.38;;;7.20;;
75044;SDS011;63614;56.026;35.960;2023-02-04T01:17:18;11.27;;;7.17;;
75044;SDS011;63614;56.026;35.960;2023-02-04T01:19:45;11.57;;;7.47;;
75044;SDS011;63614;56.026;35.960;2023-02-04T01:22:11;15.30;;;8.18;;
75044;SDS011;63614;56.026;35.960;2023-02-04T01:24:37;11.82;;;7.15;;
75044;SDS011;63614;56.026;35.960;2023-02-04T01:27:21;11.48;;;7.05;;
75044;SDS011;63614;56.026;35.960;2023-02-04T01:29:47;13.02;;;7.50;;
75044;SDS011;63614;56.026;35.960;2023-02-04T01:32:13;13.98;;;7.57;;
75044;SDS011;63614;56.026;35.960;2023-02-04T01:34:39;11.25;;;7.38;;
75044;SDS011;63614;56.026;35.960;2023-02-04T01:37:04;10.45;;;7.22;;
75044;SDS011;63614;56.026;35.960;2023-02-04T01:39:31;14.60;;;7.07;;
75044;SDS011;63614;56.026;35.960;2023-02-04T01:41:58;12.10;;;7.82;;
75044;SDS011;63614;56.026;35.960;2023-02-04T01:44:25;10.77;;;7.28;;
75044;SDS011;63614;56.026;35.960;2023-02-04T01:46:52;11.52;;;7.10;;
75044;SDS011;63614;56.026;35.960;2023-02-04T01:49:18;11.70;;;7.30;;
75044;SDS011;63614;56.026;35.960;2023-02-04T01:51:45;11.63;;;7.38;;
75044;SDS011;63614;56.026;35.960;2023-02-04T01:54:11;11.13;;;7.38;;
75044;SDS011;63614;56.026;35.960;2023-02-04T01:56:38;11.95;;;7.70;;
75044;SDS011;63614;56.026;35.960;2023-02-04T01:59:11;13.35;;;7.57;;
75044;SDS011;63614;56.026;35.960;2023-02-04T02:01:45;12.90;;;7.55;;
75044;SDS011;63614;56.026;35.960;2023-02-04T02:04:13;13.80;;;7.97;;
75044;SDS011;63614;56.026;35.960;2023-02-04T02:06:42;10.20;;;7.10;;
75044;SDS011;63614;56.026;35.960;2023-02-04T02:09:11;11.93;;;7.32;;
75044;SDS011;63614;56.026;35.960;2023-02-04T02:11:37;11.55;;;7.50;;
75044;SDS011;63614;56.026;35.960;2023-02-04T02:14:03;11.70;;;7.45;;
75044;SDS011;63614;56.026;35.960;2023-02-04T02:16:49;12.57;;;8.20;;
75044;SDS011;63614;56.026;35.960;2023-02-04T02:19:16;13.15;;;7.88;;
75044;SDS011;63614;56.026;35.960;2023-02-04T02:21:58;11.27;;;7.68;;
75044;SDS011;63614;56.026;35.960;2023-02-04T02:24:41;12.07;;;7.43;;
75044;SDS011;63614;56.026;35.960;2023-02-04T02:27:08;10.65;;;6.72;;
75044;SDS011;63614;56.026;35.960;2023-02-04T02:29:36;14.48;;;8.10;;
75044;SDS011;63614;56.026;35.960;2023-02-04T02:32:05;12.30;;;7.60;;
75044;SDS011;63614;56.026;35.960;2023-02-04T02:34:32;12.95;;;8.05;;
75044;SDS011;63614;56.026;35.960;2023-02-04T02:37:01;12.65;;;8.07;;
75044;SDS011;63614;56.026;35.960;2023-02-04T02:39:27;12.85;;;8.27;;
75044;SDS011;63614;56.026;35.960;2023-02-04T02:41:54;12.85;;;8.07;;
75044;SDS011;63614;56.026;35.960;2023-02-04T02:44:21;16.08;;;8.05;;
75044;SDS011;63614;56.026;35.960;2023-02-04T02:46:49;15.10;;;7.80;;
75044;SDS011;63614;56.026;35.960;2023-02-04T02:49:16;14.50;;;7.93;;
75044;SDS011;63614;56.026;35.960;2023-02-04T02:54:28;12.15;;;7.65;;
75044;SDS011;63614;56.026;35.960;2023-02-04T02:56:58;13.43;;;8.10;;
75044;SDS011;63614;56.026;35.960;2023-02-04T02:59:24;14.95;;;8.43;;
75044;SDS011;63614;56.026;35.960;2023-02-04T03:01:52;14.15;;;8.32;;
75044;SDS011;63614;56.026;35.960;2023-02-04T03:04:23;13.15;;;8.85;;
75044;SDS011;63614;56.026;35.960;2023-02-04T03:06:50;14.77;;;9.00;;
75044;SDS011;63614;56.026;35.960;2023-02-04T03:09:17;14.95;;;8.68;;
75044;SDS011;63614;56.026;35.960;2023-02-04T03:11:46;17.20;;;8.73;;
75044;SDS011;63614;56.026;35.960;2023-02-04T03:14:12;12.45;;;7.95;;
75044;SDS011;63614;56.026;35.960;2023-02-04T03:16:38;16.58;;;9.48;;
75044;SDS011;63614;56.026;35.960;2023-02-04T03:19:05;15.32;;;8.55;;
75044;SDS011;63614;56.026;35.960;2023-02-04T03:21:32;23.25;;;14.15;;
75044;SDS011;63614;56.026;35.960;2023-02-04T03:23:58;19.70;;;11.00;;
75044;SDS011;63614;56.026;35.960;2023-02-04T03:26:24;16.42;;;9.23;;
75044;SDS011;63614;56.026;35.960;2023-02-04T03:28:54;17.00;;;9.57;;
75044;SDS011;63614;56.026;35.960;2023-02-04T03:31:20;16.23;;;9.57;;
75044;SDS011;63614;56.026;35.960;2023-02-04T03:33:46;14.05;;;8.35;;
75044;SDS011;63614;56.026;35.960;2023-02-04T03:36:12;13.07;;;8.45;;
75044;SDS011;63614;56.026;35.960;2023-02-04T03:38:38;12.77;;;8.40;;
75044;SDS011;63614;56.026;35.960;2023-02-04T03:41:03;16.85;;;9.07;;
75044;SDS011;63614;56.026;35.960;2023-02-04T03:43:29;15.48;;;9.15;;
75044;SDS011;63614;56.026;35.960;2023-02-04T03:45:55;16.73;;;8.73;;
75044;SDS011;63614;56.026;35.960;2023-02-04T03:48:21;14.15;;;9.05;;
75044;SDS011;63614;56.026;35.960;2023-02-04T03:50:47;15.60;;;9.30;;
75044;SDS011;63614;56.026;35.960;2023-02-04T03:53:12;22.33;;;11.63;;
75044;SDS011;63614;56.026;35.960;2023-02-04T03:55:38;25.23;;;11.93;;
75044;SDS011;63614;56.026;35.960;2023-02-04T03:58:04;24.40;;;12.75;;
75044;SDS011;63614;56.026;35.960;2023-02-04T04:00:31;20.47;;;11.60;;
75044;SDS011;63614;56.026;35.960;2023-02-04T04:02:57;21.00;;;11.13;;
75044;SDS011;63614;56.026;35.960;2023-02-04T04:05:23;20.13;;;10.77;;
75044;SDS011;63614;56.026;35.960;2023-02-04T04:07:49;21.17;;;11.02;;
75044;SDS011;63614;56.026;35.960;2023-02-04T04:10:15;18.80;;;10.13;;
75044;SDS011;63614;56.026;35.960;2023-02-04T04:12:41;20.05;;;11.18;;
75044;SDS011;63614;56.026;35.960;2023-02-04T04:15:07;22.67;;;11.20;;
75044;SDS011;63614;56.026;35.960;2023-02-04T04:17:33;21.20;;;10.68;;
75044;SDS011;63614;56.026;35.960;2023-02-04T04:19:59;20.70;;;11.05;;
75044;SDS011;63614;56.026;35.960;2023-02-04T04:22:25;23.08;;;11.30;;
75044;SDS011;63614;56.026;35.960;2023-02-04T04:24:51;22.88;;;11.65;;
75044;SDS011;63614;56.026;35.960;2023-02-04T04:27:16;18.90;;;11.63;;
75044;SDS011;63614;56.026;35.960;2023-02-04T04:29:42;22.10;;;12.18;;
75044;SDS011;63614;56.026;35.960;2023-02-04T04:32:08;19.20;;;11.10;;
75044;SDS011;63614;56.026;35.960;2023-02-04T04:34:34;21.98;;;11.65;;
75044;SDS011;63614;56.026;35.960;2023-02-04T04:37:00;20.55;;;11.35;;
75044;SDS011;63614;56.026;35.960;2023-02-04T04:39:27;23.65;;;11.95;;
75044;SDS011;63614;56.026;35.960;2023-02-04T04:41:52;19.60;;;10.85;;
75044;SDS011;63614;56.026;35.960;2023-02-04T04:44:18;19.58;;;11.38;;
75044;SDS011;63614;56.026;35.960;2023-02-04T04:46:44;21.52;;;12.13;;
75044;SDS011;63614;56.026;35.960;2023-02-04T04:49:09;20.80;;;11.25;;
75044;SDS011;63614;56.026;35.960;2023-02-04T04:51:35;20.63;;;12.10;;
75044;SDS011;63614;56.026;35.960;2023-02-04T04:54:01;22.10;;;12.02;;
75044;SDS011;63614;56.026;35.960;2023-02-04T04:56:27;20.13;;;11.43;;
75044;SDS011;63614;56.026;35.960;2023-02-04T04:58:52;23.30;;;11.25;;
75044;SDS011;63614;56.026;35.960;2023-02-04T05:01:18;20.98;;;11.07;;
75044;SDS011;63614;56.026;35.960;2023-02-04T05:03:45;19.67;;;12.45;;
75044;SDS011;63614;56.026;35.960;2023-02-04T05:06:11;22.23;;;12.55;;
75044;SDS011;63614;56.026;35.960;2023-02-04T05:08:37;21.75;;;11.75;;
75044;SDS011;63614;56.026;35.960;2023-02-04T05:11:03;22.73;;;13.35;;
75044;SDS011;63614;56.026;35.960;2023-02-04T05:13:29;29.15;;;15.35;;
75044;SDS011;63614;56.026;35.960;2023-02-04T05:15:55;23.90;;;13.40;;
75044;SDS011;63614;56.026;35.960;2023-02-04T05:18:21;17.73;;;10.88;;
75044;SDS011;63614;56.026;35.960;2023-02-04T05:20:46;20.83;;;12.25;;
75044;SDS011;63614;56.026;35.960;2023-02-04T05:23:12;24.48;;;12.85;;
75044;SDS011;63614;56.026;35.960;2023-02-04T05:25:38;20.55;;;11.60;;
75044;SDS011;63614;56.026;35.960;2023-02-04T05:28:04;24.92;;;11.60;;
75044;SDS011;63614;56.026;35.960;2023-02-04T05:30:30;29.23;;;12.02;;
75044;SDS011;63614;56.026;35.960;2023-02-04T05:32:56;23.80;;;12.23;;
75044;SDS011;63614;56.026;35.960;2023-02-04T05:35:22;27.90;;;12.27;;
75044;SDS011;63614;56.026;35.960;2023-02-04T05:37:47;28.45;;;13.23;;
75044;SDS011;63614;56.026;35.960;2023-02-04T05:40:13;26.33;;;12.50;;
75044;SDS011;63614;56.026;35.960;2023-02-04T05:42:39;26.63;;;12.38;;
75044;SDS011;63614;56.026;35.960;2023-02-04T05:45:06;22.55;;;12.15;;
75044;SDS011;63614;56.026;35.960;2023-02-04T05:47:34;23.40;;;12.65;;
75044;SDS011;63614;56.026;35.960;2023-02-04T05:49:59;27.77;;;11.45;;
75044;SDS011;63614;56.026;35.960;2023-02-04T05:52:25;23.58;;;12.00;;
75044;SDS011;63614;56.026;35.960;2023-02-04T05:54:51;24.95;;;12.18;;
75044;SDS011;63614;56.026;35.960;2023-02-04T05:57:16;38.25;;;20.63;;
75044;SDS011;63614;56.026;35.960;2023-02-04T05:59:42;25.70;;;15.32;;
75044;SDS011;63614;56.026;35.960;2023-02-04T06:02:08;21.17;;;12.05;;
75044;SDS011;63614;56.026;35.960;2023-02-04T06:04:34;19.08;;;11.25;;
75044;SDS011;63614;56.026;35.960;2023-02-04T06:06:59;20.98;;;11.07;;
75044;SDS011;63614;56.026;35.960;2023-02-04T06:09:25;17.67;;;11.25;;
75044;SDS011;63614;56.026;35.960;2023-02-04T06:11:51;20.30;;;10.80;;
75044;SDS011;63614;56.026;35.960;2023-02-04T06:14:17;22.17;;;11.38;;
75044;SDS011;63614;56.026;35.960;2023-02-04T06:16:43;21.75;;;12.15;;
75044;SDS011;63614;56.026;35.960;2023-02-04T06:19:08;18.77;;;11.00;;
75044;SDS011;63614;56.026;35.960;2023-02-04T06:21:34;17.35;;;11.07;;
75044;SDS011;63614;56.026;35.960;2023-02-04T06:24:00;18.73;;;10.95;;
75044;SDS011;63614;56.026;35.960;2023-02-04T06:26:25;20.10;;;11.55;;
75044;SDS011;63614;56.026;35.960;2023-02-04T06:28:51;21.55;;;12.48;;
75044;SDS011;63614;56.026;35.960;2023-02-04T06:31:17;21.48;;;12.40;;
75044;SDS011;63614;56.026;35.960;2023-02-04T06:33:43;20.60;;;11.63;;
75044;SDS011;63614;56.026;35.960;2023-02-04T06:36:08;19.85;;;10.52;;
75044;SDS011;63614;56.026;35.960;2023-02-04T06:38:34;19.33;;;11.18;;
75044;SDS011;63614;56.026;35.960;2023-02-04T06:41:00;22.33;;;11.55;;
75044;SDS011;63614;56.026;35.960;2023-02-04T06:43:25;20.70;;;11.13;;
75044;SDS011;63614;56.026;35.960;2023-02-04T06:45:52;23.10;;;12.93;;
75044;SDS011;63614;56.026;35.960;2023-02-04T06:48:18;22.52;;;12.32;;
75044;SDS011;63614;56.026;35.960;2023-02-04T06:50:43;22.55;;;12.60;;
75044;SDS011;63614;56.026;35.960;2023-02-04T06:53:09;18.55;;;10.82;;
75044;SDS011;63614;56.026;35.960;2023-02-04T06:55:35;18.75;;;11.73;;
75044;SDS011;63614;56.026;35.960;2023-02-04T06:58:01;21.85;;;11.88;;
75044;SDS011;63614;56.026;35.960;2023-02-04T07:00:27;19.00;;;11.40;;
75044;SDS011;63614;56.026;35.960;2023-02-04T07:02:55;24.60;;;12.10;;
75044;SDS011;63614;56.026;35.960;2023-02-04T07:05:22;19.77;;;11.20;;
75044;SDS011;63614;56.026;35.960;2023-02-04T07:07:47;21.13;;;12.48;;
75044;SDS011;63614;56.026;35.960;2023-02-04T07:10:14;23.02;;;10.60;;
75044;SDS011;63614;56.026;35.960;2023-02-04T07:12:41;18.23;;;10.88;;
75044;SDS011;63614;56.026;35.960;2023-02-04T07:15:07;21.20;;;11.20;;
75044;SDS011;63614;56.026;35.960;2023-02-04T07:17:33;20.50;;;11.65;;
75044;SDS011;63614;56.026;35.960;2023-02-04T07:19:59;25.42;;;13.73;;
75044;SDS011;63614;56.026;35.960;2023-02-04T07:22:24;24.05;;;14.07;;
75044;SDS011;63614;56.026;35.960;2023-02-04T07:24:50;22.50;;;12.57;;
75044;SDS011;63614;56.026;35.960;2023-02-04T07:27:16;20.88;;;12.20;;
75044;SDS011;63614;56.026;35.960;2023-02-04T07:29:42;25.90;;;12.52;;
75044;SDS011;63614;56.026;35.960;2023-02-04T07:32:07;20.75;;;12.25;;
75044;SDS011;63614;56.026;35.960;2023-02-04T07:34:33;22.38;;;11.93;;
75044;SDS011;63614;56.026;35.960;2023-02-04T07:36:59;25.85;;;11.18;;
75044;SDS011;63614;56.026;35.960;2023-02-04T07:39:25;18.25;;;11.18;;
75044;SDS011;63614;56.026;35.960;2023-02-04T07:41:51;21.67;;;10.77;;
75044;SDS011;63614;56.026;35.960;2023-02-04T07:44:21;20.00;;;10.90;;
75044;SDS011;63614;56.026;35.960;2023-02-04T07:46:47;19.08;;;10.70;;
75044;SDS011;63614;56.026;35.960;2023-02-04T07:49:13;17.60;;;10.82;;
75044;SDS011;63614;56.026;35.960;2023-02-04T07:51:38;17.30;;;10.43;;
75044;SDS011;63614;56.026;35.960;2023-02-04T07:54:04;18.88;;;11.15;;
75044;SDS011;63614;56.026;35.960;2023-02-04T07:56:30;17.83;;;10.18;;
75044;SDS011;63614;56.026;35.960;2023-02-04T07:58:56;18.38;;;10.57;;
75044;SDS011;63614;56.026;35.960;2023-02-04T08:01:21;20.52;;;11.75;;
75044;SDS011;63614;56.026;35.960;2023-02-04T08:03:47;20.13;;;11.75;;
75044;SDS011;63614;56.026;35.960;2023-02-04T08:06:13;18.50;;;10.55;;
75044;SDS011;63614;56.026;35.960;2023-02-04T08:08:39;18.08;;;11.25;;
75044;SDS011;63614;56.026;35.960;2023-02-04T08:11:04;18.00;;;11.02;;
75044;SDS011;63614;56.026;35.960;2023-02-04T08:13:30;16.77;;;9.52;;
75044;SDS011;63614;56.026;35.960;2023-02-04T08:15:56;17.60;;;10.30;;
75044;SDS011;63614;56.026;35.960;2023-02-04T08:18:22;21.10;;;12.20;;
75044;SDS011;63614;56.026;35.960;2023-02-04T08:20:49;17.45;;;11.27;;
75044;SDS011;63614;56.026;35.960;2023-02-04T08:23:15;20.17;;;10.45;;
75044;SDS011;63614;56.026;35.960;2023-02-04T08:25:41;18.85;;;10.70;;
75044;SDS011;63614;56.026;35.960;2023-02-04T08:28:07;17.02;;;10.60;;
75044;SDS011;63614;56.026;35.960;2023-02-04T08:30:32;19.30;;;10.95;;
75044;SDS011;63614;56.026;35.960;2023-02-04T08:32:58;17.25;;;9.82;;
75044;SDS011;63614;56.026;35.960;2023-02-04T08:35:24;16.40;;;9.80;;
75044;SDS011;63614;56.026;35.960;2023-02-04T08:37:50;17.08;;;9.90;;
75044;SDS011;63614;56.026;35.960;2023-02-04T08:40:15;12.50;;;7.97;;
75044;SDS011;63614;56.026;35.960;2023-02-04T08:42:41;14.10;;;8.55;;
75044;SDS011;63614;56.026;35.960;2023-02-04T08:45:07;13.45;;;7.90;;
75044;SDS011;63614;56.026;35.960;2023-02-04T08:47:33;12.45;;;7.97;;
75044;SDS011;63614;56.026;35.960;2023-02-04T08:49:59;17.42;;;9.48;;
75044;SDS011;63614;56.026;35.960;2023-02-04T08:52:25;14.35;;;8.73;;
75044;SDS011;63614;56.026;35.960;2023-02-04T08:54:50;11.82;;;7.88;;
75044;SDS011;63614;56.026;35.960;2023-02-04T08:57:16;13.07;;;8.65;;
75044;SDS011;63614;56.026;35.960;2023-02-04T08:59:42;14.23;;;8.75;;
75044;SDS011;63614;56.026;35.960;2023-02-04T09:02:09;13.85;;;8.90;;
75044;SDS011;63614;56.026;35.960;2023-02-04T09:04:35;16.05;;;9.45;;
75044;SDS011;63614;56.026;35.960;2023-02-04T09:07:00;15.80;;;9.15;;
75044;SDS011;63614;56.026;35.960;2023-02-04T09:09:26;15.27;;;9.95;;
75044;SDS011;63614;56.026;35.960;2023-02-04T09:11:52;12.50;;;8.18;;
75044;SDS011;63614;56.026;35.960;2023-02-04T09:14:18;12.07;;;7.72;;
75044;SDS011;63614;56.026;35.960;2023-02-04T09:16:43;15.80;;;7.82;;
75044;SDS011;63614;56.026;35.960;2023-02-04T09:19:09;13.48;;;8.05;;
75044;SDS011;63614;56.026;35.960;2023-02-04T09:21:37;14.90;;;8.77;;
75044;SDS011;63614;56.026;35.960;2023-02-04T09:24:03;14.18;;;8.90;;
75044;SDS011;63614;56.026;35.960;2023-02-04T09:26:28;14.98;;;8.93;;
75044;SDS011;63614;56.026;35.960;2023-02-04T09:28:56;12.77;;;8.20;;
75044;SDS011;63614;56.026;35.960;2023-02-04T09:31:21;12.07;;;7.53;;
75044;SDS011;63614;56.026;35.960;2023-02-04T09:33:47;13.30;;;8.43;;
75044;SDS011;63614;56.026;35.960;2023-02-04T09:36:13;16.75;;;10.90;;
75044;SDS011;63614;56.026;35.960;2023-02-04T09:38:39;13.82;;;8.57;;
75044;SDS011;63614;56.026;35.960;2023-02-04T09:41:06;15.40;;;9.57;;
75044;SDS011;63614;56.026;35.960;2023-02-04T09:43:40;12.93;;;8.13;;
75044;SDS011;63614;56.026;35.960;2023-02-04T09:46:41;12.73;;;7.38;;
75044;SDS011;63614;56.026;35.960;2023-02-04T09:49:00;14.05;;;8.73;;
75044;SDS011;63614;56.026;35.960;2023-02-04T09:51:28;13.02;;;8.80;;
75044;SDS011;63614;56.026;35.960;2023-02-04T09:54:03;14.93;;;7.82;;
75044;SDS011;63614;56.026;35.960;2023-02-04T09:56:33;16.77;;;9.45;;
75044;SDS011;63614;56.026;35.960;2023-02-04T09:58:59;17.40;;;10.57;;
75044;SDS011;63614;56.026;35.960;2023-02-04T10:01:25;16.73;;;9.93;;
75044;SDS011;63614;56.026;35.960;2023-02-04T10:03:51;16.70;;;10.17;;
75044;SDS011;63614;56.026;35.960;2023-02-04T10:06:22;17.83;;;10.98;;
75044;SDS011;63614;56.026;35.960;2023-02-04T10:08:48;21.85;;;11.90;;
75044;SDS011;63614;56.026;35.960;2023-02-04T10:11:16;15.82;;;9.55;;
75044;SDS011;63614;56.026;35.960;2023-02-04T10:13:45;15.90;;;9.55;;
75044;SDS011;63614;56.026;35.960;2023-02-04T10:16:16;17.38;;;11.43;;
75044;SDS011;63614;56.026;35.960;2023-02-04T10:18:45;16.70;;;10.43;;
75044;SDS011;63614;56.026;35.960;2023-02-04T10:23:46;15.93;;;9.93;;
75044;SDS011;63614;56.026;35.960;2023-02-04T10:26:15;19.88;;;12.25;;
75044;SDS011;63614;56.026;35.960;2023-02-04T10:28:41;17.30;;;10.80;;
75044;SDS011;63614;56.026;35.960;2023-02-04T10:31:50;16.58;;;10.07;;
75044;SDS011;63614;56.026;35.960;2023-02-04T10:34:18;17.25;;;10.23;;
75044;SDS011;63614;56.026;35.960;2023-02-04T10:36:46;15.82;;;9.77;;
75044;SDS011;63614;56.026;35.960;2023-02-04T10:39:15;16.90;;;9.98;;
75044;SDS011;63614;56.026;35.960;2023-02-04T10:41:47;16.13;;;10.05;;
75044;SDS011;63614;56.026;35.960;2023-02-04T10:44:44;18.35;;;11.10;;
75044;SDS011;63614;56.026;35.960;2023-02-04T10:47:17;13.65;;;8.82;;
75044;SDS011;63614;56.026;35.960;2023-02-04T10:49:58;14.30;;;8.60;;
75044;SDS011;63614;56.026;35.960;2023-02-04T10:52:34;15.80;;;9.63;;
75044;SDS011;63614;56.026;35.960;2023-02-04T10:55:03;15.05;;;8.75;;
75044;SDS011;63614;56.026;35.960;2023-02-04T10:57:31;15.40;;;8.73;;
75044;SDS011;63614;56.026;35.960;2023-02-04T11:00:03;14.57;;;9.45;;
75044;SDS011;63614;56.026;35.960;2023-02-04T11:05:16;14.52;;;8.10;;
75044;SDS011;63614;56.026;35.960;2023-02-04T11:07:45;13.85;;;8.50;;
75044;SDS011;63614;56.026;35.960;2023-02-04T11:10:22;13.35;;;8.80;;
75044;SDS011;63614;56.026;35.960;2023-02-04T11:20:49;12.82;;;8.57;;
75044;SDS011;63614;56.026;35.960;2023-02-04T11:23:37;12.85;;;8.70;;
75044;SDS011;63614;56.026;35.960;2023-02-04T11:26:04;12.50;;;7.88;;
75044;SDS011;63614;56.026;35.960;2023-02-04T11:31:11;15.45;;;9.68;;
75044;SDS011;63614;56.026;35.960;2023-02-04T11:33:41;16.33;;;9.77;;
75044;SDS011;63614;56.026;35.960;2023-02-04T11:36:07;15.57;;;9.63;;
75044;SDS011;63614;56.026;35.960;2023-02-04T11:38:35;16.92;;;10.15;;
75044;SDS011;63614;56.026;35.960;2023-02-04T11:41:02;18.40;;;10.32;;
75044;SDS011;63614;56.026;35.960;2023-02-04T11:43:32;15.68;;;10.45;;
75044;SDS011;63614;56.026;35.960;2023-02-04T11:46:12;13.75;;;9.63;;
75044;SDS011;63614;56.026;35.960;2023-02-04T11:48:41;17.73;;;10.98;;
75044;SDS011;63614;56.026;35.960;2023-02-04T11:51:10;17.20;;;11.05;;
75044;SDS011;63614;56.026;35.960;2023-02-04T11:53:41;18.33;;;10.82;;
75044;SDS011;63614;56.026;35.960;2023-02-04T11:56:14;19.05;;;11.57;;
75044;SDS011;63614;56.026;35.960;2023-02-04T11:58:42;17.67;;;10.60;;
75044;SDS011;63614;56.026;35.960;2023-02-04T12:01:18;17.73;;;10.40;;
75044;SDS011;63614;56.026;35.960;2023-02-04T12:03:49;16.20;;;10.18;;
75044;SDS011;63614;56.026;35.960;2023-02-04T12:06:21;18.52;;;10.18;;
75044;SDS011;63614;56.026;35.960;2023-02-04T12:08:49;17.70;;;10.73;;
75044;SDS011;63614;56.026;35.960;2023-02-04T12:11:25;16.02;;;10.52;;
75044;SDS011;63614;56.026;35.960;2023-02-04T12:13:55;14.13;;;9.18;;
75044;SDS011;63614;56.026;35.960;2023-02-04T12:16:23;15.35;;;9.57;;
75044;SDS011;63614;56.026;35.960;2023-02-04T12:18:49;16.38;;;9.77;;
75044;SDS011;63614;56.026;35.960;2023-02-04T12:21:16;20.67;;;9.75;;
75044;SDS011;63614;56.026;35.960;2023-02-04T12:23:45;15.75;;;8.13;;
75044;SDS011;63614;56.026;35.960;2023-02-04T12:26:11;14.10;;;8.45;;
75044;SDS011;63614;56.026;35.960;2023-02-04T12:28:37;12.63;;;8.45;;
75044;SDS011;63614;56.026;35.960;2023-02-04T12:31:03;15.15;;;8.88;;
75044;SDS011;63614;56.026;35.960;2023-02-04T12:33:29;13.57;;;8.65;;
75044;SDS011;63614;56.026;35.960;2023-02-04T12:35:54;12.95;;;8.27;;
75044;SDS011;63614;56.026;35.960;2023-02-04T12:38:21;12.13;;;7.35;;
75044;SDS011;63614;56.026;35.960;2023-02-04T12:40:46;12.57;;;7.07;;
75044;SDS011;63614;56.026;35.960;2023-02-04T12:43:12;13.80;;;8.05;;
75044;SDS011;63614;56.026;35.960;2023-02-04T12:45:38;12.18;;;8.00;;
75044;SDS011;63614;56.026;35.960;2023-02-04T12:48:09;13.75;;;8.05;;
75044;SDS011;63614;56.026;35.960;2023-02-04T12:50:38;16.70;;;9.30;;
75044;SDS011;63614;56.026;35.960;2023-02-04T12:53:03;13.40;;;8.68;;
75044;SDS011;63614;56.026;35.960;2023-02-04T12:55:30;13.95;;;9.40;;
75044;SDS011;63614;56.026;35.960;2023-02-04T12:57:57;15.57;;;8.07;;
75044;SDS011;63614;56.026;35.960;2023-02-04T13:00:22;14.50;;;9.15;;
75044;SDS011;63614;56.026;35.960;2023-02-04T13:02:49;14.55;;;9.13;;
75044;SDS011;63614;56.026;35.960;2023-02-04T13:05:15;13.88;;;8.80;;
75044;SDS011;63614;56.026;35.960;2023-02-04T13:07:41;13.98;;;8.10;;
75044;SDS011;63614;56.026;35.960;2023-02-04T13:10:08;13.73;;;8.55;;
75044;SDS011;63614;56.026;35.960;2023-02-04T13:12:34;12.10;;;8.10;;
75044;SDS011;63614;56.026;35.960;2023-02-04T13:15:00;13.65;;;8.55;;
75044;SDS011;63614;56.026;35.960;2023-02-04T13:17:28;16.67;;;9.35;;
75044;SDS011;63614;56.026;35.960;2023-02-04T13:19:54;15.85;;;10.05;;
75044;SDS011;63614;56.026;35.960;2023-02-04T13:22:20;16.15;;;9.18;;
75044;SDS011;63614;56.026;35.960;2023-02-04T13:24:46;15.60;;;9.90;;
75044;SDS011;63614;56.026;35.960;2023-02-04T13:27:11;12.68;;;8.45;;
75044;SDS011;63614;56.026;35.960;2023-02-04T13:29:39;11.27;;;8.00;;
75044;SDS011;63614;56.026;35.960;2023-02-04T13:32:05;11.98;;;7.43;;
75044;SDS011;63614;56.026;35.960;2023-02-04T13:34:31;11.65;;;7.45;;
75044;SDS011;63614;56.026;35.960;2023-02-04T13:36:57;10.73;;;6.93;;
75044;SDS011;63614;56.026;35.960;2023-02-04T13:39:23;11.20;;;7.25;;
75044;SDS011;63614;56.026;35.960;2023-02-04T13:41:48;10.43;;;6.85;;
75044;SDS011;63614;56.026;35.960;2023-02-04T13:44:14;12.20;;;7.35;;
75044;SDS011;63614;56.026;35.960;2023-02-04T13:46:40;13.15;;;7.10;;
75044;SDS011;63614;56.026;35.960;2023-02-04T13:49:06;12.95;;;7.72;;
75044;SDS011;63614;56.026;35.960;2023-02-04T13:51:32;13.10;;;7.63;;
75044;SDS011;63614;56.026;35.960;2023-02-04T13:53:58;12.27;;;6.68;;
75044;SDS011;63614;56.026;35.960;2023-02-04T13:56:27;16.95;;;9.00;;
75044;SDS011;63614;56.026;35.960;2023-02-04T13:58:53;12.27;;;7.70;;
75044;SDS011;63614;56.026;35.960;2023-02-04T14:01:19;13.70;;;7.25;;
75044;SDS011;63614;56.026;35.960;2023-02-04T14:03:44;9.60;;;6.18;;
75044;SDS011;63614;56.026;35.960;2023-02-04T14:06:10;10.98;;;6.53;;
75044;SDS011;63614;56.026;35.960;2023-02-04T14:08:37;11.73;;;6.88;;
75044;SDS011;63614;56.026;35.960;2023-02-04T14:11:04;8.77;;;6.25;;
75044;SDS011;63614;56.026;35.960;2023-02-04T14:13:31;12.00;;;6.82;;
75044;SDS011;63614;56.026;35.960;2023-02-04T14:15:57;11.13;;;7.18;;
75044;SDS011;63614;56.026;35.960;2023-02-04T14:18:23;12.93;;;7.65;;
75044;SDS011;63614;56.026;35.960;2023-02-04T14:20:49;11.30;;;6.68;;
75044;SDS011;63614;56.026;35.960;2023-02-04T14:23:14;11.48;;;7.47;;
75044;SDS011;63614;56.026;35.960;2023-02-04T14:25:40;12.73;;;7.70;;
75044;SDS011;63614;56.026;35.960;2023-02-04T14:28:06;10.82;;;6.45;;
75044;SDS011;63614;56.026;35.960;2023-02-04T14:30:32;10.05;;;6.63;;
75044;SDS011;63614;56.026;35.960;2023-02-04T14:32:58;10.80;;;6.65;;
75044;SDS011;63614;56.026;35.960;2023-02-04T14:35:24;11.27;;;6.97;;